Skip Navigation Links
NOAA logo - Click to go to the NOAA homepage
NOAA's National Weather Service
Alaska Aviation Weather Unit
  NWS logo - Click to go to the NWS homepage
Left Navbar Graphic     03 AKDT = 11 GMT

   
NOAA is celebrating 200 years of science, service, and stewardship. Visit the NOAA 200th celebration Web site to learn more.
USA.gov is the U.S. Government's official Web portal to all Federal, state and local government Web resources and services.
Facebook
NWS on Facebook

AAWU Home :: Display TAF Add Bookmark
TAF PABE 290532Z 2906/3006 33008KT P6SM SKC
     FM291200 28005KT P6SM VCFG SCT002
     FM292000 27005KT P6SM SKC
     FM300500 36005KT P6SM SKC=

METAR PABE 290553Z 30011KT 10SM CLR M11/M14 A2978 RMK AO2 SLP089 T11111144 11094 21111 53007 $= METAR PABE 290653Z 30009KT 10SM CLR M13/M16 A2980 RMK AO2 SLP093 T11281161 $= METAR PABE 290753Z 31011KT 10SM CLR M14/M18 A2980 RMK AO2 SLP096 T11391178 $= METAR PABE 290853Z 32008KT 10SM CLR M15/M18 A2981 RMK AO2 SLP097 T11501183 410941178 51009 $= METAR PABE 290953Z 31011KT 10SM CLR M16/M18 A2982 RMK AO2 SLP101 T11561183 $= METAR PABE 291053Z 31011KT 10SM CLR M17/M19 A2983 RMK AO2 SLP103 T11671189 $=
 Alaska TAF Map

NOAA's National Weather Service
Alaska Aviation Weather Unit
6930 Sand Lake Road
Anchorage, AK 99502-1845
Disclaimer
Credits
Glossary
Privacy Policy
About Us
Career Opportunities
Contact AAWU Internet Services Site last modified: April, 17th 2012